sensor_id;sensor_type;location;lat;lon;timestamp;P1;durP1;ratioP1;P2;durP2;ratioP2
70373;SDS011;57792;49.198;7.890;2022-07-23T00:00:17;13.03;;;9.20;;
70373;SDS011;57792;49.198;7.890;2022-07-23T00:01:19;11.63;;;9.38;;
70373;SDS011;57792;49.198;7.890;2022-07-23T00:02:20;12.57;;;9.20;;
70373;SDS011;57792;49.198;7.890;2022-07-23T00:03:20;13.07;;;9.50;;
70373;SDS011;57792;49.198;7.890;2022-07-23T00:04:20;12.77;;;9.13;;
70373;SDS011;57792;49.198;7.890;2022-07-23T00:05:21;12.73;;;9.73;;
70373;SDS011;57792;49.198;7.890;2022-07-23T00:06:22;13.13;;;9.10;;
70373;SDS011;57792;49.198;7.890;2022-07-23T00:07:23;13.38;;;9.32;;
70373;SDS011;57792;49.198;7.890;2022-07-23T00:08:23;13.70;;;9.50;;
70373;SDS011;57792;49.198;7.890;2022-07-23T00:09:24;12.10;;;9.57;;
70373;SDS011;57792;49.198;7.890;2022-07-23T00:10:24;15.02;;;9.80;;
70373;SDS011;57792;49.198;7.890;2022-07-23T00:11:24;12.47;;;9.70;;
70373;SDS011;57792;49.198;7.890;2022-07-23T00:12:25;13.40;;;9.57;;
70373;SDS011;57792;49.198;7.890;2022-07-23T00:13:26;12.98;;;9.65;;
70373;SDS011;57792;49.198;7.890;2022-07-23T00:14:26;14.23;;;9.63;;
70373;SDS011;57792;49.198;7.890;2022-07-23T00:15:27;13.53;;;9.67;;
70373;SDS011;57792;49.198;7.890;2022-07-23T00:16:27;14.93;;;9.17;;
70373;SDS011;57792;49.198;7.890;2022-07-23T00:17:28;13.23;;;9.50;;
70373;SDS011;57792;49.198;7.890;2022-07-23T00:18:28;13.10;;;9.82;;
70373;SDS011;57792;49.198;7.890;2022-07-23T00:19:28;13.27;;;9.73;;
70373;SDS011;57792;49.198;7.890;2022-07-23T00:20:29;13.40;;;9.90;;
70373;SDS011;57792;49.198;7.890;2022-07-23T00:21:29;12.50;;;9.77;;
70373;SDS011;57792;49.198;7.890;2022-07-23T00:22:30;12.70;;;10.20;;
70373;SDS011;57792;49.198;7.890;2022-07-23T00:23:30;12.37;;;9.57;;
70373;SDS011;57792;49.198;7.890;2022-07-23T00:24:31;12.77;;;10.10;;
70373;SDS011;57792;49.198;7.890;2022-07-23T00:25:31;13.47;;;10.13;;
70373;SDS011;57792;49.198;7.890;2022-07-23T00:26:32;13.73;;;10.20;;
70373;SDS011;57792;49.198;7.890;2022-07-23T00:27:32;14.02;;;10.10;;
70373;SDS011;57792;49.198;7.890;2022-07-23T00:28:33;13.97;;;10.30;;
70373;SDS011;57792;49.198;7.890;2022-07-23T00:29:33;13.00;;;9.65;;
70373;SDS011;57792;49.198;7.890;2022-07-23T00:30:34;12.13;;;9.80;;
70373;SDS011;57792;49.198;7.890;2022-07-23T00:31:34;13.30;;;10.23;;
70373;SDS011;57792;49.198;7.890;2022-07-23T00:32:54;15.10;;;10.13;;
70373;SDS011;57792;49.198;7.890;2022-07-23T00:33:58;13.73;;;9.20;;
70373;SDS011;57792;49.198;7.890;2022-07-23T00:35:01;12.40;;;9.40;;
70373;SDS011;57792;49.198;7.890;2022-07-23T00:36:01;12.85;;;9.93;;
70373;SDS011;57792;49.198;7.890;2022-07-23T00:37:02;15.20;;;9.63;;
70373;SDS011;57792;49.198;7.890;2022-07-23T00:38:03;13.20;;;9.73;;
70373;SDS011;57792;49.198;7.890;2022-07-23T00:39:04;15.07;;;9.55;;
70373;SDS011;57792;49.198;7.890;2022-07-23T00:40:05;14.55;;;9.68;;
70373;SDS011;57792;49.198;7.890;2022-07-23T00:41:06;12.40;;;9.83;;
70373;SDS011;57792;49.198;7.890;2022-07-23T00:42:06;12.55;;;9.48;;
70373;SDS011;57792;49.198;7.890;2022-07-23T00:43:06;12.13;;;9.17;;
70373;SDS011;57792;49.198;7.890;2022-07-23T00:44:14;13.43;;;9.17;;
70373;SDS011;57792;49.198;7.890;2022-07-23T00:45:17;13.65;;;9.65;;
70373;SDS011;57792;49.198;7.890;2022-07-23T00:46:21;14.05;;;9.93;;
70373;SDS011;57792;49.198;7.890;2022-07-23T00:47:22;12.85;;;9.10;;
70373;SDS011;57792;49.198;7.890;2022-07-23T00:48:23;11.53;;;9.13;;
70373;SDS011;57792;49.198;7.890;2022-07-23T00:49:24;12.40;;;9.20;;
70373;SDS011;57792;49.198;7.890;2022-07-23T00:50:26;12.07;;;8.80;;
70373;SDS011;57792;49.198;7.890;2022-07-23T00:51:27;13.38;;;9.05;;
70373;SDS011;57792;49.198;7.890;2022-07-23T00:52:27;12.83;;;9.33;;
70373;SDS011;57792;49.198;7.890;2022-07-23T00:53:27;13.17;;;9.30;;
70373;SDS011;57792;49.198;7.890;2022-07-23T00:54:28;14.02;;;9.30;;
70373;SDS011;57792;49.198;7.890;2022-07-23T00:55:29;11.60;;;8.63;;
70373;SDS011;57792;49.198;7.890;2022-07-23T00:56:30;12.00;;;8.47;;
70373;SDS011;57792;49.198;7.890;2022-07-23T00:57:30;11.45;;;8.68;;
70373;SDS011;57792;49.198;7.890;2022-07-23T00:58:31;12.93;;;8.43;;
70373;SDS011;57792;49.198;7.890;2022-07-23T00:59:33;16.23;;;8.38;;
70373;SDS011;57792;49.198;7.890;2022-07-23T01:00:33;12.93;;;8.67;;
70373;SDS011;57792;49.198;7.890;2022-07-23T01:01:34;10.55;;;8.15;;
70373;SDS011;57792;49.198;7.890;2022-07-23T01:02:34;11.60;;;7.43;;
70373;SDS011;57792;49.198;7.890;2022-07-23T01:03:35;10.40;;;8.10;;
70373;SDS011;57792;49.198;7.890;2022-07-23T01:04:35;11.97;;;7.97;;
70373;SDS011;57792;49.198;7.890;2022-07-23T01:05:36;12.05;;;7.72;;
70373;SDS011;57792;49.198;7.890;2022-07-23T01:06:37;11.73;;;7.68;;
70373;SDS011;57792;49.198;7.890;2022-07-23T01:07:38;11.85;;;7.85;;
70373;SDS011;57792;49.198;7.890;2022-07-23T01:08:39;10.87;;;8.20;;
70373;SDS011;57792;49.198;7.890;2022-07-23T01:09:39;14.50;;;8.52;;
70373;SDS011;57792;49.198;7.890;2022-07-23T01:10:40;11.67;;;8.60;;
70373;SDS011;57792;49.198;7.890;2022-07-23T01:11:41;12.23;;;8.80;;
70373;SDS011;57792;49.198;7.890;2022-07-23T01:12:42;10.88;;;8.52;;
70373;SDS011;57792;49.198;7.890;2022-07-23T01:13:42;12.00;;;8.40;;
70373;SDS011;57792;49.198;7.890;2022-07-23T01:14:43;11.70;;;8.38;;
70373;SDS011;57792;49.198;7.890;2022-07-23T01:15:44;12.70;;;9.03;;
70373;SDS011;57792;49.198;7.890;2022-07-23T01:16:45;12.67;;;8.80;;
70373;SDS011;57792;49.198;7.890;2022-07-23T01:17:47;10.40;;;7.85;;
70373;SDS011;57792;49.198;7.890;2022-07-23T01:18:47;11.82;;;7.18;;
70373;SDS011;57792;49.198;7.890;2022-07-23T01:19:47;10.60;;;7.20;;
70373;SDS011;57792;49.198;7.890;2022-07-23T01:20:48;12.53;;;6.93;;
70373;SDS011;57792;49.198;7.890;2022-07-23T01:21:50;11.75;;;6.75;;
70373;SDS011;57792;49.198;7.890;2022-07-23T01:22:53;12.38;;;6.68;;
70373;SDS011;57792;49.198;7.890;2022-07-23T01:23:53;10.77;;;7.10;;
70373;SDS011;57792;49.198;7.890;2022-07-23T01:24:54;10.07;;;6.50;;
70373;SDS011;57792;49.198;7.890;2022-07-23T01:25:54;10.27;;;6.93;;
70373;SDS011;57792;49.198;7.890;2022-07-23T01:26:55;10.43;;;6.73;;
70373;SDS011;57792;49.198;7.890;2022-07-23T01:27:55;10.55;;;6.50;;
70373;SDS011;57792;49.198;7.890;2022-07-23T01:28:56;10.90;;;7.13;;
70373;SDS011;57792;49.198;7.890;2022-07-23T01:29:56;11.20;;;7.10;;
70373;SDS011;57792;49.198;7.890;2022-07-23T01:30:57;9.82;;;6.63;;
70373;SDS011;57792;49.198;7.890;2022-07-23T01:31:57;9.33;;;6.67;;
70373;SDS011;57792;49.198;7.890;2022-07-23T01:32:58;12.80;;;6.80;;
70373;SDS011;57792;49.198;7.890;2022-07-23T01:33:58;11.33;;;6.90;;
70373;SDS011;57792;49.198;7.890;2022-07-23T01:34:58;10.07;;;6.90;;
70373;SDS011;57792;49.198;7.890;2022-07-23T01:35:59;11.43;;;6.87;;
70373;SDS011;57792;49.198;7.890;2022-07-23T01:36:59;11.00;;;6.80;;
70373;SDS011;57792;49.198;7.890;2022-07-23T01:38:00;10.10;;;6.87;;
70373;SDS011;57792;49.198;7.890;2022-07-23T01:39:00;11.73;;;7.10;;
70373;SDS011;57792;49.198;7.890;2022-07-23T01:40:01;8.98;;;6.55;;
70373;SDS011;57792;49.198;7.890;2022-07-23T01:41:01;10.97;;;6.53;;
70373;SDS011;57792;49.198;7.890;2022-07-23T01:42:01;11.23;;;6.50;;
70373;SDS011;57792;49.198;7.890;2022-07-23T01:43:02;10.20;;;6.80;;
70373;SDS011;57792;49.198;7.890;2022-07-23T01:44:02;12.53;;;7.13;;
70373;SDS011;57792;49.198;7.890;2022-07-23T01:45:04;10.77;;;6.30;;
70373;SDS011;57792;49.198;7.890;2022-07-23T01:46:04;10.35;;;6.70;;
70373;SDS011;57792;49.198;7.890;2022-07-23T01:47:05;9.97;;;6.57;;
70373;SDS011;57792;49.198;7.890;2022-07-23T01:48:06;9.30;;;6.50;;
70373;SDS011;57792;49.198;7.890;2022-07-23T01:49:07;10.77;;;6.15;;
70373;SDS011;57792;49.198;7.890;2022-07-23T01:50:07;8.40;;;6.38;;
70373;SDS011;57792;49.198;7.890;2022-07-23T01:51:08;10.83;;;6.57;;
70373;SDS011;57792;49.198;7.890;2022-07-23T01:52:08;9.77;;;6.63;;
70373;SDS011;57792;49.198;7.890;2022-07-23T01:53:10;10.17;;;7.00;;
70373;SDS011;57792;49.198;7.890;2022-07-23T01:54:11;10.85;;;6.28;;
70373;SDS011;57792;49.198;7.890;2022-07-23T01:55:11;8.70;;;6.27;;
70373;SDS011;57792;49.198;7.890;2022-07-23T01:56:11;9.53;;;6.27;;
70373;SDS011;57792;49.198;7.890;2022-07-23T01:57:12;9.70;;;6.60;;
70373;SDS011;57792;49.198;7.890;2022-07-23T01:58:12;8.60;;;6.53;;
70373;SDS011;57792;49.198;7.890;2022-07-23T01:59:13;9.70;;;6.70;;
70373;SDS011;57792;49.198;7.890;2022-07-23T02:00:13;9.63;;;6.40;;
70373;SDS011;57792;49.198;7.890;2022-07-23T02:01:14;11.13;;;6.78;;
70373;SDS011;57792;49.198;7.890;2022-07-23T02:02:14;11.57;;;6.93;;
70373;SDS011;57792;49.198;7.890;2022-07-23T02:03:14;10.17;;;6.50;;
70373;SDS011;57792;49.198;7.890;2022-07-23T02:04:15;10.23;;;6.33;;
70373;SDS011;57792;49.198;7.890;2022-07-23T02:05:15;10.80;;;6.63;;
70373;SDS011;57792;49.198;7.890;2022-07-23T02:06:15;10.57;;;6.67;;
70373;SDS011;57792;49.198;7.890;2022-07-23T02:07:16;10.97;;;6.63;;
70373;SDS011;57792;49.198;7.890;2022-07-23T02:08:16;12.13;;;6.82;;
70373;SDS011;57792;49.198;7.890;2022-07-23T02:09:17;9.80;;;6.57;;
70373;SDS011;57792;49.198;7.890;2022-07-23T02:10:18;9.40;;;6.97;;
70373;SDS011;57792;49.198;7.890;2022-07-23T02:11:18;9.80;;;6.90;;
70373;SDS011;57792;49.198;7.890;2022-07-23T02:12:18;9.80;;;6.23;;
70373;SDS011;57792;49.198;7.890;2022-07-23T02:13:19;11.05;;;6.63;;
70373;SDS011;57792;49.198;7.890;2022-07-23T02:14:19;9.97;;;6.70;;
70373;SDS011;57792;49.198;7.890;2022-07-23T02:15:20;10.50;;;6.53;;
70373;SDS011;57792;49.198;7.890;2022-07-23T02:16:20;10.57;;;6.80;;
70373;SDS011;57792;49.198;7.890;2022-07-23T02:17:20;9.57;;;6.35;;
70373;SDS011;57792;49.198;7.890;2022-07-23T02:18:21;9.87;;;6.57;;
70373;SDS011;57792;49.198;7.890;2022-07-23T02:19:21;11.57;;;6.70;;
70373;SDS011;57792;49.198;7.890;2022-07-23T02:20:21;8.90;;;6.30;;
70373;SDS011;57792;49.198;7.890;2022-07-23T02:21:22;12.00;;;6.88;;
70373;SDS011;57792;49.198;7.890;2022-07-23T02:22:23;11.57;;;7.10;;
70373;SDS011;57792;49.198;7.890;2022-07-23T02:23:23;9.63;;;6.45;;
70373;SDS011;57792;49.198;7.890;2022-07-23T02:24:23;9.93;;;6.50;;
70373;SDS011;57792;49.198;7.890;2022-07-23T02:25:24;10.23;;;6.37;;
70373;SDS011;57792;49.198;7.890;2022-07-23T02:26:24;10.00;;;6.80;;
70373;SDS011;57792;49.198;7.890;2022-07-23T02:27:24;9.48;;;6.20;;
70373;SDS011;57792;49.198;7.890;2022-07-23T02:28:25;9.53;;;6.40;;
70373;SDS011;57792;49.198;7.890;2022-07-23T02:29:25;11.97;;;6.40;;
70373;SDS011;57792;49.198;7.890;2022-07-23T02:30:25;9.83;;;6.77;;
70373;SDS011;57792;49.198;7.890;2022-07-23T02:31:26;9.25;;;6.40;;
70373;SDS011;57792;49.198;7.890;2022-07-23T02:32:26;9.47;;;5.90;;
70373;SDS011;57792;49.198;7.890;2022-07-23T02:33:27;9.63;;;6.63;;
70373;SDS011;57792;49.198;7.890;2022-07-23T02:34:27;11.35;;;6.82;;
70373;SDS011;57792;49.198;7.890;2022-07-23T02:35:28;10.07;;;6.70;;
70373;SDS011;57792;49.198;7.890;2022-07-23T02:36:28;10.50;;;6.90;;
70373;SDS011;57792;49.198;7.890;2022-07-23T02:37:29;10.77;;;6.90;;
70373;SDS011;57792;49.198;7.890;2022-07-23T02:38:29;10.33;;;6.30;;
70373;SDS011;57792;49.198;7.890;2022-07-23T02:39:30;9.90;;;6.60;;
70373;SDS011;57792;49.198;7.890;2022-07-23T02:40:30;10.10;;;6.50;;
70373;SDS011;57792;49.198;7.890;2022-07-23T02:41:30;11.10;;;6.80;;
70373;SDS011;57792;49.198;7.890;2022-07-23T02:42:31;9.43;;;6.43;;
70373;SDS011;57792;49.198;7.890;2022-07-23T02:43:31;10.43;;;6.70;;
70373;SDS011;57792;49.198;7.890;2022-07-23T02:44:32;9.25;;;6.45;;
70373;SDS011;57792;49.198;7.890;2022-07-23T02:45:33;9.38;;;6.20;;
70373;SDS011;57792;49.198;7.890;2022-07-23T02:46:33;9.80;;;6.60;;
70373;SDS011;57792;49.198;7.890;2022-07-23T02:47:33;11.47;;;6.33;;
70373;SDS011;57792;49.198;7.890;2022-07-23T02:48:34;9.47;;;6.60;;
70373;SDS011;57792;49.198;7.890;2022-07-23T02:49:34;10.98;;;6.85;;
70373;SDS011;57792;49.198;7.890;2022-07-23T02:50:35;11.37;;;6.77;;
70373;SDS011;57792;49.198;7.890;2022-07-23T02:51:35;10.17;;;7.30;;
70373;SDS011;57792;49.198;7.890;2022-07-23T02:52:35;10.77;;;7.03;;
70373;SDS011;57792;49.198;7.890;2022-07-23T02:53:36;9.67;;;7.00;;
70373;SDS011;57792;49.198;7.890;2022-07-23T02:54:36;11.03;;;6.77;;
70373;SDS011;57792;49.198;7.890;2022-07-23T02:55:37;10.07;;;7.00;;
70373;SDS011;57792;49.198;7.890;2022-07-23T02:56:37;10.73;;;6.97;;
70373;SDS011;57792;49.198;7.890;2022-07-23T02:57:38;11.20;;;7.50;;
70373;SDS011;57792;49.198;7.890;2022-07-23T02:58:38;11.13;;;7.30;;
70373;SDS011;57792;49.198;7.890;2022-07-23T02:59:38;10.35;;;7.00;;
70373;SDS011;57792;49.198;7.890;2022-07-23T03:00:39;11.27;;;6.70;;
70373;SDS011;57792;49.198;7.890;2022-07-23T03:01:39;9.70;;;6.53;;
70373;SDS011;57792;49.198;7.890;2022-07-23T03:02:40;10.73;;;6.80;;
70373;SDS011;57792;49.198;7.890;2022-07-23T03:03:40;8.67;;;6.53;;
70373;SDS011;57792;49.198;7.890;2022-07-23T03:04:41;11.10;;;6.93;;
70373;SDS011;57792;49.198;7.890;2022-07-23T03:05:42;10.07;;;6.70;;
70373;SDS011;57792;49.198;7.890;2022-07-23T03:06:42;10.80;;;6.90;;
70373;SDS011;57792;49.198;7.890;2022-07-23T03:07:43;9.45;;;6.53;;
70373;SDS011;57792;49.198;7.890;2022-07-23T03:08:43;10.23;;;6.90;;
70373;SDS011;57792;49.198;7.890;2022-07-23T03:09:43;10.07;;;6.73;;
70373;SDS011;57792;49.198;7.890;2022-07-23T03:10:44;9.37;;;6.87;;
70373;SDS011;57792;49.198;7.890;2022-07-23T03:11:44;10.88;;;7.15;;
70373;SDS011;57792;49.198;7.890;2022-07-23T03:12:44;11.67;;;6.77;;
70373;SDS011;57792;49.198;7.890;2022-07-23T03:13:45;10.07;;;7.10;;
70373;SDS011;57792;49.198;7.890;2022-07-23T03:14:45;11.17;;;6.57;;
70373;SDS011;57792;49.198;7.890;2022-07-23T03:15:45;11.87;;;7.23;;
70373;SDS011;57792;49.198;7.890;2022-07-23T03:16:46;11.23;;;7.57;;
70373;SDS011;57792;49.198;7.890;2022-07-23T03:17:46;11.77;;;7.17;;
70373;SDS011;57792;49.198;7.890;2022-07-23T03:18:47;12.83;;;7.40;;
70373;SDS011;57792;49.198;7.890;2022-07-23T03:19:47;11.27;;;7.10;;
70373;SDS011;57792;49.198;7.890;2022-07-23T03:20:48;13.10;;;7.77;;
70373;SDS011;57792;49.198;7.890;2022-07-23T03:21:48;11.00;;;7.37;;
70373;SDS011;57792;49.198;7.890;2022-07-23T03:22:48;11.77;;;7.17;;
70373;SDS011;57792;49.198;7.890;2022-07-23T03:23:49;11.38;;;7.43;;
70373;SDS011;57792;49.198;7.890;2022-07-23T03:24:49;11.63;;;7.20;;
70373;SDS011;57792;49.198;7.890;2022-07-23T03:25:55;13.95;;;7.70;;
70373;SDS011;57792;49.198;7.890;2022-07-23T03:26:56;11.63;;;7.67;;
70373;SDS011;57792;49.198;7.890;2022-07-23T03:27:56;10.40;;;7.37;;
70373;SDS011;57792;49.198;7.890;2022-07-23T03:28:56;10.27;;;6.90;;
70373;SDS011;57792;49.198;7.890;2022-07-23T03:29:57;9.67;;;7.27;;
70373;SDS011;57792;49.198;7.890;2022-07-23T03:30:59;11.15;;;6.78;;
70373;SDS011;57792;49.198;7.890;2022-07-23T03:31:59;10.10;;;7.07;;
70373;SDS011;57792;49.198;7.890;2022-07-23T03:32:59;10.57;;;6.60;;
70373;SDS011;57792;49.198;7.890;2022-07-23T03:34:00;11.03;;;6.90;;
70373;SDS011;57792;49.198;7.890;2022-07-23T03:35:00;13.35;;;7.25;;
70373;SDS011;57792;49.198;7.890;2022-07-23T03:36:01;13.77;;;7.93;;
70373;SDS011;57792;49.198;7.890;2022-07-23T03:37:02;15.43;;;7.72;;
70373;SDS011;57792;49.198;7.890;2022-07-23T03:38:02;19.90;;;8.40;;
70373;SDS011;57792;49.198;7.890;2022-07-23T03:39:03;14.17;;;8.57;;
70373;SDS011;57792;49.198;7.890;2022-07-23T03:40:04;19.37;;;9.20;;
70373;SDS011;57792;49.198;7.890;2022-07-23T03:41:05;17.77;;;8.93;;
70373;SDS011;57792;49.198;7.890;2022-07-23T03:42:05;14.20;;;8.20;;
70373;SDS011;57792;49.198;7.890;2022-07-23T03:43:06;16.35;;;8.25;;
70373;SDS011;57792;49.198;7.890;2022-07-23T03:44:06;15.38;;;9.10;;
70373;SDS011;57792;49.198;7.890;2022-07-23T03:45:07;18.00;;;8.63;;
70373;SDS011;57792;49.198;7.890;2022-07-23T03:46:08;18.77;;;8.85;;
70373;SDS011;57792;49.198;7.890;2022-07-23T03:47:09;15.82;;;9.27;;
70373;SDS011;57792;49.198;7.890;2022-07-23T03:48:10;15.73;;;8.80;;
70373;SDS011;57792;49.198;7.890;2022-07-23T03:49:10;17.43;;;8.63;;
70373;SDS011;57792;49.198;7.890;2022-07-23T03:50:10;16.83;;;8.60;;
70373;SDS011;57792;49.198;7.890;2022-07-23T03:51:11;15.75;;;8.98;;
70373;SDS011;57792;49.198;7.890;2022-07-23T03:52:11;15.63;;;8.63;;
70373;SDS011;57792;49.198;7.890;2022-07-23T03:53:11;18.63;;;9.13;;
70373;SDS011;57792;49.198;7.890;2022-07-23T03:54:12;14.90;;;9.02;;
70373;SDS011;57792;49.198;7.890;2022-07-23T03:55:13;15.43;;;8.93;;
70373;SDS011;57792;49.198;7.890;2022-07-23T03:56:14;21.60;;;9.70;;
70373;SDS011;57792;49.198;7.890;2022-07-23T03:57:15;19.10;;;9.80;;
70373;SDS011;57792;49.198;7.890;2022-07-23T03:58:15;14.73;;;8.77;;
70373;SDS011;57792;49.198;7.890;2022-07-23T03:59:15;15.80;;;9.10;;
70373;SDS011;57792;49.198;7.890;2022-07-23T04:00:16;15.82;;;9.07;;
70373;SDS011;57792;49.198;7.890;2022-07-23T04:01:16;14.13;;;9.40;;
70373;SDS011;57792;49.198;7.890;2022-07-23T04:02:17;15.53;;;8.80;;
70373;SDS011;57792;49.198;7.890;2022-07-23T04:03:17;13.63;;;8.90;;
70373;SDS011;57792;49.198;7.890;2022-07-23T04:04:18;14.90;;;9.40;;
70373;SDS011;57792;49.198;7.890;2022-07-23T04:05:18;16.17;;;9.27;;
70373;SDS011;57792;49.198;7.890;2022-07-23T04:06:18;12.67;;;9.00;;
70373;SDS011;57792;49.198;7.890;2022-07-23T04:07:19;12.70;;;8.35;;
70373;SDS011;57792;49.198;7.890;2022-07-23T04:08:19;14.73;;;9.00;;
70373;SDS011;57792;49.198;7.890;2022-07-23T04:09:20;16.47;;;9.10;;
70373;SDS011;57792;49.198;7.890;2022-07-23T04:10:20;12.90;;;8.40;;
70373;SDS011;57792;49.198;7.890;2022-07-23T04:11:22;17.17;;;9.57;;
70373;SDS011;57792;49.198;7.890;2022-07-23T04:12:22;14.38;;;9.38;;
70373;SDS011;57792;49.198;7.890;2022-07-23T04:13:23;14.23;;;8.73;;
70373;SDS011;57792;49.198;7.890;2022-07-23T04:14:24;14.87;;;9.07;;
70373;SDS011;57792;49.198;7.890;2022-07-23T04:15:24;17.80;;;10.80;;
70373;SDS011;57792;49.198;7.890;2022-07-23T04:16:24;16.92;;;10.27;;
70373;SDS011;57792;49.198;7.890;2022-07-23T04:17:25;16.30;;;9.00;;
70373;SDS011;57792;49.198;7.890;2022-07-23T04:18:26;16.45;;;9.77;;
70373;SDS011;57792;49.198;7.890;2022-07-23T04:19:26;14.80;;;9.60;;
70373;SDS011;57792;49.198;7.890;2022-07-23T04:20:27;16.40;;;9.43;;
70373;SDS011;57792;49.198;7.890;2022-07-23T04:21:27;14.57;;;9.50;;
70373;SDS011;57792;49.198;7.890;2022-07-23T04:22:28;14.90;;;9.33;;
70373;SDS011;57792;49.198;7.890;2022-07-23T04:23:28;15.30;;;9.40;;
70373;SDS011;57792;49.198;7.890;2022-07-23T04:24:28;14.90;;;8.87;;
70373;SDS011;57792;49.198;7.890;2022-07-23T04:25:29;14.77;;;9.57;;
70373;SDS011;57792;49.198;7.890;2022-07-23T04:26:29;14.93;;;9.48;;
70373;SDS011;57792;49.198;7.890;2022-07-23T04:27:29;16.37;;;10.07;;
70373;SDS011;57792;49.198;7.890;2022-07-23T04:28:30;17.57;;;8.93;;
70373;SDS011;57792;49.198;7.890;2022-07-23T04:29:30;13.80;;;9.17;;
70373;SDS011;57792;49.198;7.890;2022-07-23T04:30:31;13.80;;;9.35;;
70373;SDS011;57792;49.198;7.890;2022-07-23T04:31:31;15.17;;;9.33;;
70373;SDS011;57792;49.198;7.890;2022-07-23T04:32:32;14.23;;;10.07;;
70373;SDS011;57792;49.198;7.890;2022-07-23T04:33:32;15.17;;;9.53;;
70373;SDS011;57792;49.198;7.890;2022-07-23T04:34:32;13.63;;;9.33;;
70373;SDS011;57792;49.198;7.890;2022-07-23T04:35:33;15.10;;;8.87;;
70373;SDS011;57792;49.198;7.890;2022-07-23T04:36:34;14.15;;;9.40;;
70373;SDS011;57792;49.198;7.890;2022-07-23T04:37:34;11.90;;;9.00;;
70373;SDS011;57792;49.198;7.890;2022-07-23T04:38:34;13.83;;;9.13;;
70373;SDS011;57792;49.198;7.890;2022-07-23T04:39:35;13.43;;;9.17;;
70373;SDS011;57792;49.198;7.890;2022-07-23T04:40:35;13.90;;;9.37;;
70373;SDS011;57792;49.198;7.890;2022-07-23T04:41:36;14.00;;;9.47;;
70373;SDS011;57792;49.198;7.890;2022-07-23T04:42:36;18.27;;;9.27;;
70373;SDS011;57792;49.198;7.890;2022-07-23T04:43:36;13.90;;;9.43;;
70373;SDS011;57792;49.198;7.890;2022-07-23T04:44:37;13.77;;;9.10;;
70373;SDS011;57792;49.198;7.890;2022-07-23T04:45:37;15.40;;;10.17;;
70373;SDS011;57792;49.198;7.890;2022-07-23T04:46:38;14.33;;;10.63;;
70373;SDS011;57792;49.198;7.890;2022-07-23T04:47:38;14.90;;;10.53;;
70373;SDS011;57792;49.198;7.890;2022-07-23T04:48:38;13.20;;;9.47;;
70373;SDS011;57792;49.198;7.890;2022-07-23T04:49:39;13.98;;;9.60;;
70373;SDS011;57792;49.198;7.890;2022-07-23T04:50:39;14.83;;;9.30;;
70373;SDS011;57792;49.198;7.890;2022-07-23T04:51:40;15.10;;;9.90;;
70373;SDS011;57792;49.198;7.890;2022-07-23T04:52:40;15.90;;;10.40;;
70373;SDS011;57792;49.198;7.890;2022-07-23T04:53:41;15.23;;;9.60;;
70373;SDS011;57792;49.198;7.890;2022-07-23T04:54:41;16.67;;;10.83;;
70373;SDS011;57792;49.198;7.890;2022-07-23T04:55:41;15.83;;;9.70;;
70373;SDS011;57792;49.198;7.890;2022-07-23T04:56:42;15.50;;;10.40;;
70373;SDS011;57792;49.198;7.890;2022-07-23T04:57:42;16.33;;;11.03;;
70373;SDS011;57792;49.198;7.890;2022-07-23T04:58:43;14.40;;;9.52;;
70373;SDS011;57792;49.198;7.890;2022-07-23T04:59:43;14.10;;;9.17;;
70373;SDS011;57792;49.198;7.890;2022-07-23T05:00:43;18.03;;;10.00;;
70373;SDS011;57792;49.198;7.890;2022-07-23T05:01:44;13.83;;;9.40;;
70373;SDS011;57792;49.198;7.890;2022-07-23T05:02:44;15.77;;;9.55;;
70373;SDS011;57792;49.198;7.890;2022-07-23T05:03:44;15.47;;;10.37;;
70373;SDS011;57792;49.198;7.890;2022-07-23T05:04:45;17.97;;;11.20;;
70373;SDS011;57792;49.198;7.890;2022-07-23T05:05:45;18.53;;;12.43;;
70373;SDS011;57792;49.198;7.890;2022-07-23T05:06:46;17.52;;;11.10;;
70373;SDS011;57792;49.198;7.890;2022-07-23T05:07:46;16.30;;;9.60;;
70373;SDS011;57792;49.198;7.890;2022-07-23T05:08:46;14.43;;;9.80;;
70373;SDS011;57792;49.198;7.890;2022-07-23T05:09:47;14.93;;;9.90;;
70373;SDS011;57792;49.198;7.890;2022-07-23T05:10:47;18.98;;;10.38;;
70373;SDS011;57792;49.198;7.890;2022-07-23T05:11:48;15.67;;;10.10;;
70373;SDS011;57792;49.198;7.890;2022-07-23T05:12:48;14.13;;;9.97;;
70373;SDS011;57792;49.198;7.890;2022-07-23T05:13:48;15.52;;;9.65;;
70373;SDS011;57792;49.198;7.890;2022-07-23T05:14:49;14.17;;;9.70;;
70373;SDS011;57792;49.198;7.890;2022-07-23T05:15:49;14.47;;;9.57;;
70373;SDS011;57792;49.198;7.890;2022-07-23T05:16:50;13.23;;;9.60;;
70373;SDS011;57792;49.198;7.890;2022-07-23T05:17:50;18.15;;;10.10;;
70373;SDS011;57792;49.198;7.890;2022-07-23T05:18:50;13.80;;;9.70;;
70373;SDS011;57792;49.198;7.890;2022-07-23T05:19:51;15.50;;;10.00;;
70373;SDS011;57792;49.198;7.890;2022-07-23T05:20:51;13.50;;;9.23;;
70373;SDS011;57792;49.198;7.890;2022-07-23T05:21:52;15.00;;;10.73;;
70373;SDS011;57792;49.198;7.890;2022-07-23T05:22:52;16.03;;;9.73;;
70373;SDS011;57792;49.198;7.890;2022-07-23T05:23:53;15.50;;;9.50;;
70373;SDS011;57792;49.198;7.890;2022-07-23T05:24:53;12.70;;;8.97;;
70373;SDS011;57792;49.198;7.890;2022-07-23T05:25:54;16.23;;;9.80;;
70373;SDS011;57792;49.198;7.890;2022-07-23T05:26:54;13.13;;;9.27;;
70373;SDS011;57792;49.198;7.890;2022-07-23T05:27:54;13.25;;;9.02;;
70373;SDS011;57792;49.198;7.890;2022-07-23T05:28:55;13.93;;;9.33;;
70373;SDS011;57792;49.198;7.890;2022-07-23T05:29:55;14.50;;;9.40;;
70373;SDS011;57792;49.198;7.890;2022-07-23T05:30:55;13.85;;;9.57;;
70373;SDS011;57792;49.198;7.890;2022-07-23T05:31:56;14.37;;;9.50;;
70373;SDS011;57792;49.198;7.890;2022-07-23T05:32:56;15.23;;;10.00;;
70373;SDS011;57792;49.198;7.890;2022-07-23T05:33:57;13.90;;;9.70;;
70373;SDS011;57792;49.198;7.890;2022-07-23T05:34:57;13.50;;;9.80;;
70373;SDS011;57792;49.198;7.890;2022-07-23T05:36:01;14.03;;;10.30;;
70373;SDS011;57792;49.198;7.890;2022-07-23T05:37:02;13.82;;;9.80;;
70373;SDS011;57792;49.198;7.890;2022-07-23T05:38:03;15.37;;;10.20;;
70373;SDS011;57792;49.198;7.890;2022-07-23T05:39:03;14.43;;;10.20;;
70373;SDS011;57792;49.198;7.890;2022-07-23T05:40:04;12.68;;;9.25;;
70373;SDS011;57792;49.198;7.890;2022-07-23T05:41:07;16.42;;;10.13;;
70373;SDS011;57792;49.198;7.890;2022-07-23T05:42:07;18.00;;;10.37;;
70373;SDS011;57792;49.198;7.890;2022-07-23T05:43:08;15.00;;;10.73;;
70373;SDS011;57792;49.198;7.890;2022-07-23T05:44:08;12.77;;;9.75;;
70373;SDS011;57792;49.198;7.890;2022-07-23T05:45:09;14.37;;;10.20;;
70373;SDS011;57792;49.198;7.890;2022-07-23T05:46:10;16.20;;;10.52;;
70373;SDS011;57792;49.198;7.890;2022-07-23T05:47:10;15.97;;;10.57;;
70373;SDS011;57792;49.198;7.890;2022-07-23T05:48:10;14.10;;;10.27;;
70373;SDS011;57792;49.198;7.890;2022-07-23T05:49:11;13.80;;;10.00;;
70373;SDS011;57792;49.198;7.890;2022-07-23T05:50:12;15.60;;;10.33;;
70373;SDS011;57792;49.198;7.890;2022-07-23T05:51:13;15.73;;;10.68;;
70373;SDS011;57792;49.198;7.890;2022-07-23T05:52:13;16.60;;;10.50;;
70373;SDS011;57792;49.198;7.890;2022-07-23T05:53:14;16.95;;;10.82;;
70373;SDS011;57792;49.198;7.890;2022-07-23T05:54:14;17.60;;;11.67;;
70373;SDS011;57792;49.198;7.890;2022-07-23T05:55:14;15.93;;;10.83;;
70373;SDS011;57792;49.198;7.890;2022-07-23T05:56:15;16.60;;;11.20;;
70373;SDS011;57792;49.198;7.890;2022-07-23T05:57:16;16.17;;;10.30;;
70373;SDS011;57792;49.198;7.890;2022-07-23T05:58:16;15.52;;;10.40;;
70373;SDS011;57792;49.198;7.890;2022-07-23T05:59:17;14.73;;;10.30;;